createdAt,value
2022-11-11T00:02:07.310Z,16.77
2022-11-11T00:05:28.303Z,16.88
2022-11-11T00:08:49.630Z,16.67
2022-11-11T00:12:10.569Z,17.38
2022-11-11T00:15:31.693Z,18.80
2022-11-11T00:19:10.844Z,18.00
2022-11-11T00:22:50.157Z,20.63
2022-11-11T00:26:37.970Z,21.90
2022-11-11T00:29:54.993Z,20.05
2022-11-11T00:33:15.793Z,19.98
2022-11-11T00:36:36.397Z,19.77
2022-11-11T00:39:57.163Z,21.93
2022-11-11T00:43:17.997Z,20.55
2022-11-11T00:46:57.133Z,20.63
2022-11-11T00:50:42.506Z,19.70
2022-11-11T00:54:03.441Z,20.50
2022-11-11T00:57:24.235Z,19.37
2022-11-11T01:00:45.513Z,20.50
2022-11-11T01:04:06.559Z,20.27
2022-11-11T01:07:27.885Z,19.67
2022-11-11T01:10:49.719Z,20.63
2022-11-11T01:14:11.106Z,18.75
2022-11-11T01:17:32.423Z,19.20
2022-11-11T01:20:59.782Z,17.95
2022-11-11T01:24:21.230Z,19.03
2022-11-11T01:27:42.408Z,18.30
2022-11-11T01:31:09.189Z,19.58
2022-11-11T01:34:30.331Z,18.80
2022-11-11T01:37:51.427Z,18.97
2022-11-11T01:41:32.967Z,19.23
2022-11-11T01:44:54.331Z,19.25
2022-11-11T01:49:02.040Z,19.92
2022-11-11T01:52:31.983Z,18.67
2022-11-11T01:55:54.173Z,18.40
2022-11-11T01:59:17.930Z,19.33
2022-11-11T02:02:43.624Z,18.70
2022-11-11T02:06:04.897Z,18.08
2022-11-11T02:09:26.698Z,17.83
2022-11-11T02:13:06.108Z,17.73
2022-11-11T02:16:27.490Z,17.75
2022-11-11T02:19:57.953Z,17.73
2022-11-11T02:23:37.592Z,17.57
2022-11-11T02:27:00.226Z,17.75
2022-11-11T02:30:21.745Z,18.08
2022-11-11T02:33:42.821Z,17.65
2022-11-11T02:37:06.787Z,18.97
2022-11-11T02:40:37.254Z,17.30
2022-11-11T02:43:58.141Z,17.20
2022-11-11T02:47:19.186Z,17.70
2022-11-11T02:50:40.039Z,17.47
2022-11-11T02:54:01.277Z,17.43
2022-11-11T02:57:23.013Z,16.92
2022-11-11T03:00:44.353Z,18.35
2022-11-11T03:04:06.246Z,18.90
2022-11-11T03:07:27.479Z,17.93
2022-11-11T03:10:48.818Z,17.57
2022-11-11T03:14:10.260Z,17.70
2022-11-11T03:17:40.144Z,17.92
2022-11-11T03:21:54.388Z,17.83
2022-11-11T03:25:06.502Z,18.63
2022-11-11T03:28:27.583Z,17.30
2022-11-11T03:31:50.719Z,18.05
2022-11-11T03:35:11.561Z,20.67
2022-11-11T03:38:32.647Z,20.97
2022-11-11T03:41:53.729Z,21.33
2022-11-11T03:45:14.842Z,19.40
2022-11-11T03:48:35.779Z,18.70
2022-11-11T03:51:56.518Z,17.75
2022-11-11T03:55:17.493Z,21.02
2022-11-11T03:58:38.241Z,16.17
2022-11-11T04:02:17.387Z,13.50
2022-11-11T04:05:56.817Z,12.30
2022-11-11T04:09:36.076Z,12.27
2022-11-11T04:13:18.104Z,12.02
2022-11-11T04:16:39.143Z,17.00
2022-11-11T04:20:18.342Z,22.08
2022-11-11T04:23:39.313Z,23.80
2022-11-11T04:27:02.343Z,21.52
2022-11-11T04:30:23.058Z,16.17
2022-11-11T04:33:43.772Z,17.20
2022-11-11T04:37:04.655Z,19.05
2022-11-11T04:40:43.868Z,16.75
2022-11-11T04:44:23.998Z,15.35
2022-11-11T04:47:53.406Z,14.87
2022-11-11T04:51:14.490Z,15.05
2022-11-11T04:54:55.148Z,15.98
2022-11-11T04:58:18.027Z,15.60
2022-11-11T05:01:57.629Z,15.57
2022-11-11T05:05:18.329Z,15.50
2022-11-11T05:08:56.431Z,14.30
2022-11-11T05:12:17.670Z,15.07
2022-11-11T05:15:58.965Z,22.17
2022-11-11T05:19:38.722Z,16.07
2022-11-11T05:22:59.452Z,13.77
2022-11-11T05:26:20.435Z,15.07
2022-11-11T05:29:41.460Z,12.73
2022-11-11T05:33:02.944Z,14.17
2022-11-11T05:36:24.102Z,27.17
2022-11-11T05:39:45.900Z,23.05
2022-11-11T05:43:06.915Z,19.95
2022-11-11T05:46:28.051Z,21.93
2022-11-11T05:49:48.795Z,22.88
2022-11-11T05:53:09.717Z,18.30
2022-11-11T05:56:30.736Z,17.13
2022-11-11T05:59:51.657Z,17.93
2022-11-11T06:03:13.185Z,18.48
2022-11-11T06:06:35.843Z,17.35
2022-11-11T06:10:17.299Z,15.98
2022-11-11T06:13:38.476Z,15.47
2022-11-11T06:16:59.549Z,15.60
2022-11-11T06:20:20.942Z,14.98
2022-11-11T06:23:42.029Z,14.55
2022-11-11T06:27:02.811Z,13.80
2022-11-11T06:30:51.816Z,14.98
2022-11-11T06:34:04.758Z,16.70
2022-11-11T06:37:25.833Z,16.17
2022-11-11T06:40:47.015Z,16.63
2022-11-11T06:44:07.938Z,16.50
2022-11-11T06:47:29.125Z,16.00
2022-11-11T06:50:50.986Z,21.75
2022-11-11T06:54:12.045Z,24.42
2022-11-11T06:57:33.845Z,25.83
2022-11-11T07:00:54.823Z,24.37
2022-11-11T07:04:16.266Z,24.58
2022-11-11T07:07:37.715Z,24.48
2022-11-11T07:11:03.484Z,21.20
2022-11-11T07:14:28.233Z,27.70
2022-11-11T07:17:49.165Z,23.60
2022-11-11T07:21:09.961Z,22.63
2022-11-11T07:24:30.932Z,23.05
2022-11-11T07:27:57.804Z,21.50
2022-11-11T07:31:20.206Z,21.47
2022-11-11T07:34:41.448Z,21.15
2022-11-11T07:38:03.196Z,18.20
2022-11-11T07:41:24.592Z,16.33
2022-11-11T07:44:49.330Z,19.38
2022-11-11T07:48:11.046Z,17.70
2022-11-11T07:51:32.400Z,17.50
2022-11-11T07:54:53.601Z,17.67
2022-11-11T07:58:14.779Z,17.55
2022-11-11T08:01:36.573Z,18.58
2022-11-11T08:04:58.178Z,18.43
2022-11-11T08:08:25.475Z,23.88
2022-11-11T08:12:05.817Z,24.50
2022-11-11T08:15:27.083Z,19.10
2022-11-11T08:18:48.493Z,17.63
2022-11-11T08:22:10.014Z,18.27
2022-11-11T08:25:32.003Z,17.77
2022-11-11T08:28:53.773Z,18.48
2022-11-11T08:32:15.325Z,17.83
2022-11-11T08:35:36.470Z,16.90
2022-11-11T08:38:57.814Z,16.87
2022-11-11T08:42:19.193Z,16.17
2022-11-11T08:45:40.635Z,16.45
2022-11-11T08:49:02.449Z,15.88
2022-11-11T08:52:23.610Z,16.90
2022-11-11T08:55:45.412Z,14.57
2022-11-11T08:59:06.822Z,15.40
2022-11-11T09:02:28.050Z,15.80
2022-11-11T09:05:49.391Z,15.60
2022-11-11T09:09:10.596Z,11.82
2022-11-11T09:12:33.298Z,9.93
2022-11-11T09:15:55.327Z,10.32
2022-11-11T09:19:16.145Z,11.57
2022-11-11T09:22:43.263Z,11.07
2022-11-11T09:26:04.350Z,12.27
2022-11-11T09:29:25.543Z,12.10
2022-11-11T09:33:12.731Z,11.82
2022-11-11T09:36:39.427Z,13.18
2022-11-11T09:40:01.466Z,12.23
2022-11-11T09:43:29.966Z,11.73
2022-11-11T09:47:39.955Z,10.77
2022-11-11T09:51:05.618Z,10.48
2022-11-11T09:54:50.440Z,11.30
2022-11-11T09:58:35.047Z,11.05
2022-11-11T10:01:59.606Z,10.48
2022-11-11T10:05:31.104Z,9.97
2022-11-11T10:09:02.672Z,9.60
2022-11-11T10:12:43.371Z,10.82
2022-11-11T10:16:26.245Z,10.07
2022-11-11T10:20:14.235Z,10.52
2022-11-11T10:23:37.699Z,9.07
2022-11-11T10:27:04.866Z,8.88
2022-11-11T10:30:32.036Z,9.10
2022-11-11T10:34:02.955Z,9.20
2022-11-11T10:37:31.402Z,7.13
2022-11-11T10:40:59.780Z,5.80
2022-11-11T10:44:27.729Z,5.30
2022-11-11T10:48:07.602Z,6.30
2022-11-11T10:51:37.191Z,5.30
2022-11-11T10:55:24.080Z,5.13
2022-11-11T10:58:48.344Z,4.60
2022-11-11T11:02:23.648Z,6.50
2022-11-11T11:06:12.364Z,5.10
2022-11-11T11:10:11.077Z,4.25
2022-11-11T11:13:55.242Z,4.45
2022-11-11T11:17:47.027Z,4.70
2022-11-11T11:21:21.706Z,4.32
2022-11-11T11:25:20.434Z,6.10
2022-11-11T11:29:46.841Z,5.93
2022-11-11T11:33:15.400Z,5.85
2022-11-11T11:36:46.607Z,4.70
2022-11-11T11:40:15.077Z,4.22
2022-11-11T11:43:48.123Z,6.22
2022-11-11T11:47:29.537Z,4.18
2022-11-11T11:50:58.926Z,3.95
2022-11-11T11:54:50.933Z,4.53
2022-11-11T11:58:47.036Z,3.70
2022-11-11T12:02:57.349Z,3.75
2022-11-11T12:07:29.343Z,3.67
2022-11-11T12:11:24.476Z,8.20
2022-11-11T12:15:29.350Z,3.80
2022-11-11T12:20:09.020Z,4.15
2022-11-11T12:24:10.378Z,4.97
2022-11-11T12:28:02.678Z,5.45
2022-11-11T12:31:36.840Z,5.60
2022-11-11T12:35:42.456Z,4.97
2022-11-11T12:43:54.855Z,5.47
2022-11-11T12:47:43.769Z,6.00
2022-11-11T12:51:59.559Z,7.10
2022-11-11T12:55:32.807Z,6.90
2022-11-11T13:00:18.600Z,7.63
2022-11-11T13:08:32.000Z,9.68
2022-11-11T13:16:28.319Z,10.33
2022-11-11T13:20:04.961Z,10.55
2022-11-11T13:24:27.732Z,11.15
2022-11-11T13:28:49.532Z,10.85
2022-11-11T13:32:31.576Z,9.82
2022-11-11T13:36:24.741Z,9.50
2022-11-11T13:39:51.969Z,8.98
2022-11-11T13:43:34.173Z,8.93
2022-11-11T13:47:02.879Z,8.13
2022-11-11T13:50:36.352Z,7.95
2022-11-11T13:53:59.582Z,8.40
2022-11-11T13:57:23.774Z,8.70
2022-11-11T14:00:44.764Z,8.55
2022-11-11T14:04:08.342Z,8.25
2022-11-11T14:07:57.514Z,8.45
2022-11-11T14:11:24.254Z,8.37
2022-11-11T14:14:50.443Z,10.05
2022-11-11T14:18:32.003Z,10.60
2022-11-11T14:22:16.910Z,9.77
2022-11-11T14:25:37.751Z,10.13
2022-11-11T14:29:03.775Z,9.67
2022-11-11T14:32:38.242Z,9.57
2022-11-11T14:36:07.025Z,10.75
2022-11-11T14:39:45.079Z,9.63
2022-11-11T14:43:41.680Z,10.07
2022-11-11T14:47:02.630Z,10.30
2022-11-11T14:50:32.408Z,9.77
2022-11-11T14:53:54.054Z,10.27
2022-11-11T14:57:30.626Z,9.82
2022-11-11T15:01:03.686Z,11.02
2022-11-11T15:04:26.836Z,10.77
2022-11-11T15:08:00.249Z,12.98
2022-11-11T15:11:37.012Z,13.48
2022-11-11T15:15:25.893Z,16.35
2022-11-11T15:18:54.769Z,24.25
2022-11-11T15:22:51.180Z,32.93
2022-11-11T15:26:47.346Z,42.45
2022-11-11T15:30:19.145Z,28.73
2022-11-11T15:33:59.482Z,40.80
2022-11-11T15:37:22.648Z,55.22
2022-11-11T15:40:49.857Z,104.77
2022-11-11T15:44:32.494Z,58.35
2022-11-11T15:47:54.330Z,46.85
2022-11-11T15:51:38.758Z,58.55
2022-11-11T15:55:02.249Z,50.25
2022-11-11T15:58:26.398Z,43.03
2022-11-11T16:01:47.765Z,25.33
2022-11-11T16:05:22.950Z,37.20
2022-11-11T16:08:53.580Z,34.78
2022-11-11T16:12:24.517Z,27.27
2022-11-11T16:15:56.918Z,40.33
2022-11-11T16:19:26.016Z,46.63
2022-11-11T16:22:48.850Z,47.42
2022-11-11T16:26:10.708Z,36.83
2022-11-11T16:29:38.876Z,41.97
2022-11-11T16:32:59.834Z,30.13
2022-11-11T16:36:20.993Z,41.75
2022-11-11T16:39:43.487Z,50.15
2022-11-11T16:43:22.721Z,45.25
2022-11-11T16:46:44.108Z,31.27
2022-11-11T16:50:10.740Z,23.47
2022-11-11T16:53:36.023Z,27.75
2022-11-11T16:56:59.567Z,54.72
2022-11-11T17:00:24.229Z,35.35
2022-11-11T17:03:54.388Z,34.17
2022-11-11T17:07:35.795Z,48.83
2022-11-11T17:10:56.903Z,38.17
2022-11-11T17:14:18.044Z,62.83
2022-11-11T17:17:40.677Z,44.63
2022-11-11T17:21:02.570Z,43.67
2022-11-11T17:24:23.834Z,50.10
2022-11-11T17:27:45.345Z,41.35
2022-11-11T17:31:08.695Z,43.83
2022-11-11T17:34:29.889Z,55.97
2022-11-11T17:37:51.157Z,58.28
2022-11-11T17:41:15.682Z,79.77
2022-11-11T17:44:36.810Z,59.65
2022-11-11T17:47:57.808Z,52.50
2022-11-11T17:51:19.284Z,57.25
2022-11-11T17:54:40.325Z,55.08
2022-11-11T17:58:01.634Z,51.67
2022-11-11T18:01:22.950Z,50.95
2022-11-11T18:04:44.087Z,53.42
2022-11-11T18:08:05.586Z,56.05
2022-11-11T18:11:26.330Z,62.97
2022-11-11T18:14:47.109Z,77.53
2022-11-11T18:18:08.159Z,79.07
2022-11-11T18:21:29.619Z,62.03
2022-11-11T18:24:50.895Z,67.20
2022-11-11T18:28:11.924Z,60.25
2022-11-11T18:31:33.833Z,71.33
2022-11-11T18:34:54.712Z,64.53
2022-11-11T18:38:15.811Z,63.22
2022-11-11T18:41:37.031Z,72.15
2022-11-11T18:44:58.368Z,78.95
2022-11-11T18:48:19.684Z,72.90
2022-11-11T18:51:41.613Z,64.03
2022-11-11T18:55:02.769Z,66.40
2022-11-11T18:58:24.074Z,47.95
2022-11-11T19:01:47.284Z,42.00
2022-11-11T19:05:12.048Z,37.53
2022-11-11T19:08:35.361Z,40.55
2022-11-11T19:11:56.898Z,42.38
2022-11-11T19:15:18.273Z,45.55
2022-11-11T19:18:40.210Z,47.25
2022-11-11T19:22:01.648Z,41.23
2022-11-11T19:25:22.598Z,40.10
2022-11-11T19:28:43.700Z,35.75
2022-11-11T19:32:05.508Z,40.22
2022-11-11T19:35:27.007Z,42.17
2022-11-11T19:38:48.773Z,47.63
2022-11-11T19:42:10.299Z,46.15
2022-11-11T19:45:36.635Z,47.28
2022-11-11T19:48:59.545Z,46.67
2022-11-11T19:52:20.597Z,48.60
2022-11-11T19:55:41.848Z,45.97
2022-11-11T19:59:03.536Z,44.80
2022-11-11T20:02:24.289Z,44.47
2022-11-11T20:05:45.133Z,42.95
2022-11-11T20:09:07.776Z,42.47
2022-11-11T20:12:28.696Z,40.37
2022-11-11T20:15:49.619Z,43.95
2022-11-11T20:19:10.847Z,42.47
2022-11-11T20:22:31.786Z,47.42
2022-11-11T20:25:54.114Z,57.23
2022-11-11T20:29:15.598Z,48.90
2022-11-11T20:32:36.663Z,47.53
2022-11-11T20:36:02.188Z,47.72
2022-11-11T20:39:23.474Z,56.55
2022-11-11T20:42:44.582Z,70.73
2022-11-11T20:46:25.956Z,56.87
2022-11-11T20:49:47.651Z,53.42
2022-11-11T20:53:08.358Z,55.35
2022-11-11T20:56:29.616Z,54.42
2022-11-11T20:59:50.751Z,67.00
2022-11-11T21:03:11.972Z,54.92
2022-11-11T21:06:34.933Z,52.47
2022-11-11T21:09:56.146Z,58.88
2022-11-11T21:13:17.644Z,51.65
2022-11-11T21:16:38.833Z,50.43
2022-11-11T21:20:00.020Z,54.80
2022-11-11T21:23:21.271Z,51.45
2022-11-11T21:26:42.286Z,48.40
2022-11-11T21:30:03.513Z,41.55
2022-11-11T21:33:24.852Z,35.77
2022-11-11T21:36:46.034Z,29.35
2022-11-11T21:40:07.721Z,30.75
2022-11-11T21:43:28.711Z,24.85
2022-11-11T21:46:49.722Z,24.43
2022-11-11T21:50:10.865Z,19.33
2022-11-11T21:53:32.378Z,16.90
2022-11-11T21:56:54.606Z,16.02
2022-11-11T22:00:15.849Z,14.15
2022-11-11T22:03:38.449Z,15.57
2022-11-11T22:06:59.343Z,15.10
2022-11-11T22:10:20.156Z,19.95
2022-11-11T22:13:45.227Z,26.70
2022-11-11T22:17:06.406Z,21.73
2022-11-11T22:20:27.208Z,20.57
2022-11-11T22:23:52.816Z,19.90
2022-11-11T22:27:13.990Z,17.45
2022-11-11T22:30:34.816Z,13.75
2022-11-11T22:34:00.153Z,11.27
2022-11-11T22:37:21.589Z,13.50
2022-11-11T22:40:42.459Z,11.82
2022-11-11T22:44:03.583Z,12.93
2022-11-11T22:47:24.357Z,11.35
2022-11-11T22:50:45.266Z,11.87
2022-11-11T22:54:06.843Z,18.17
2022-11-11T22:57:30.762Z,45.10
2022-11-11T23:00:51.693Z,43.63
2022-11-11T23:04:12.832Z,31.70
2022-11-11T23:07:33.594Z,19.30
2022-11-11T23:10:54.588Z,16.40
2022-11-11T23:14:25.758Z,13.93
2022-11-11T23:17:51.278Z,11.60
2022-11-11T23:21:17.203Z,14.90
2022-11-11T23:24:38.067Z,17.30
2022-11-11T23:27:59.084Z,17.77
2022-11-11T23:31:47.792Z,16.77
2022-11-11T23:35:22.180Z,19.13
2022-11-11T23:38:44.852Z,21.73
2022-11-11T23:42:06.289Z,17.80
2022-11-11T23:45:27.373Z,20.25
2022-11-11T23:48:48.483Z,17.90
2022-11-11T23:52:09.494Z,20.40
2022-11-11T23:55:30.656Z,18.42
2022-11-11T23:58:51.439Z,21.40
